Main page
METAR-TAF:

METAR-TAF

Airports :

Isle of Man Airport

Isle of Man,

latitude: 54-05N, longitude: 004-38W, elevation: 17 m

Current weather observation

The report was made 39 minutes ago, at 21:50 UTC
Wind 4 kt from the West/Northwest
Temperature 4°C
Humidity 75%
Pressure 1024 hPa
Visibility 10 km or more
Few clouds at a height of 4500 ft

METAR: EGNS 112150Z 29004KT 9999 FEW045 04/00 Q1024

Time: 23:29 (22:29 UTC)

Forecast

The report was made 5 hours and 29 minutes ago, at 17:00 UTC
Forecast valid from 11 at 18 UTC to 11 at 21 UTC
Wind 10 kt from the West/Northwest
Visibility 10 km or more
Few clouds at a height of 2500 ft
Scattered clouds at a height of 3000 ft
Probability 40% :
Temporary
from 11 at 18 UTC to 11 at 21 UTC
Visibility: 6000 m
Broken clouds at a height of 1400 ft
rain showers

TAF: EGNS 111700Z 1118/1121 30010KT 9999 FEW025 SCT030 PROB40 TEMPO 1118/1121 6000 SHRA BKN014

Weather observations and forecasts of more than 4000 airports (METAR and TAF reports).

The available stations are represented by yellow and red dots on the map.

Hover mouse over dot to see the name of the station.

Then click to see weather observations and forecasts.

To change the map : click on the green buttons with a black cross to zoom in, on the green button with a dash to zoom out, or on the green arrows for adjacent maps.


METAR-TAF: